sensor_id;sensor_type;location;lat;lon;timestamp;pressure;altitude;pressure_sealevel;temperature;humidity
77737;BME280;66903;59.926;30.404;2023-02-12T00:01:13;101639.34;;;24.87;32.06
77737;BME280;66903;59.926;30.404;2023-02-12T00:12:04;101651.91;;;24.86;32.20
77737;BME280;66903;59.926;30.404;2023-02-12T00:17:05;101675.94;;;24.85;31.96
77737;BME280;66903;59.926;30.404;2023-02-12T00:22:08;101680.78;;;24.85;32.44
77737;BME280;66903;59.926;30.404;2023-02-12T00:27:34;101695.66;;;24.87;32.16
77737;BME280;66903;59.926;30.404;2023-02-12T00:33:02;101702.78;;;24.84;32.15
77737;BME280;66903;59.926;30.404;2023-02-12T00:38:18;101694.53;;;24.78;31.92
77737;BME280;66903;59.926;30.404;2023-02-12T00:43:19;101707.38;;;24.80;31.66
77737;BME280;66903;59.926;30.404;2023-02-12T00:48:19;101737.97;;;24.80;31.72
77737;BME280;66903;59.926;30.404;2023-02-12T00:53:29;101744.53;;;24.80;31.71
77737;BME280;66903;59.926;30.404;2023-02-12T00:58:49;101751.97;;;24.76;31.66
77737;BME280;66903;59.926;30.404;2023-02-12T01:04:17;101765.38;;;24.81;31.66
77737;BME280;66903;59.926;30.404;2023-02-12T01:09:20;101756.53;;;24.77;31.50
77737;BME280;66903;59.926;30.404;2023-02-12T01:14:21;101751.09;;;24.76;31.38
77737;BME280;66903;59.926;30.404;2023-02-12T01:19:21;101751.69;;;24.73;31.29
77737;BME280;66903;59.926;30.404;2023-02-12T01:24:22;101764.22;;;24.72;31.36
77737;BME280;66903;59.926;30.404;2023-02-12T01:29:22;101781.66;;;24.70;31.28
77737;BME280;66903;59.926;30.404;2023-02-12T01:34:23;101789.63;;;24.68;31.42
77737;BME280;66903;59.926;30.404;2023-02-12T01:39:23;101797.13;;;24.69;31.54
77737;BME280;66903;59.926;30.404;2023-02-12T01:44:28;101797.66;;;24.66;31.41
77737;BME280;66903;59.926;30.404;2023-02-12T01:49:51;101816.22;;;24.69;31.14
77737;BME280;66903;59.926;30.404;2023-02-12T01:55:03;101825.94;;;24.63;31.10
77737;BME280;66903;59.926;30.404;2023-02-12T02:00:07;101834.25;;;24.74;31.38
77737;BME280;66903;59.926;30.404;2023-02-12T02:05:09;101860.22;;;24.63;30.67
77737;BME280;66903;59.926;30.404;2023-02-12T02:10:12;101859.94;;;24.59;30.98
77737;BME280;66903;59.926;30.404;2023-02-12T02:15:12;101857.63;;;24.56;31.17
77737;BME280;66903;59.926;30.404;2023-02-12T02:21:32;101861.63;;;24.60;30.74
77737;BME280;66903;59.926;30.404;2023-02-12T02:31:19;101872.47;;;24.58;30.94
77737;BME280;66903;59.926;30.404;2023-02-12T02:36:29;101883.03;;;24.53;30.38
77737;BME280;66903;59.926;30.404;2023-02-12T02:41:37;101877.59;;;24.51;30.56
77737;BME280;66903;59.926;30.404;2023-02-12T02:46:48;101878.47;;;24.52;30.52
77737;BME280;66903;59.926;30.404;2023-02-12T02:51:54;101888.75;;;24.53;30.62
77737;BME280;66903;59.926;30.404;2023-02-12T02:57:04;101880.47;;;24.51;30.69
77737;BME280;66903;59.926;30.404;2023-02-12T03:02:14;101893.03;;;24.50;30.45
77737;BME280;66903;59.926;30.404;2023-02-12T03:07:41;101907.91;;;24.52;30.70
77737;BME280;66903;59.926;30.404;2023-02-12T03:12:52;101909.88;;;24.47;30.15
77737;BME280;66903;59.926;30.404;2023-02-12T03:17:54;101911.56;;;24.43;30.33
77737;BME280;66903;59.926;30.404;2023-02-12T03:23:10;101918.16;;;24.43;30.37
77737;BME280;66903;59.926;30.404;2023-02-12T03:28:20;101927.00;;;24.42;30.21
77737;BME280;66903;59.926;30.404;2023-02-12T03:33:33;101930.69;;;24.37;29.92
77737;BME280;66903;59.926;30.404;2023-02-12T03:39:08;101951.25;;;24.39;30.18
77737;BME280;66903;59.926;30.404;2023-02-12T03:44:49;101949.56;;;24.38;30.04
77737;BME280;66903;59.926;30.404;2023-02-12T03:50:12;101963.78;;;24.33;29.66
77737;BME280;66903;59.926;30.404;2023-02-12T03:55:26;101954.97;;;24.35;30.12
77737;BME280;66903;59.926;30.404;2023-02-12T04:00:37;101952.34;;;24.28;29.97
77737;BME280;66903;59.926;30.404;2023-02-12T04:05:41;101968.94;;;24.31;29.66
77737;BME280;66903;59.926;30.404;2023-02-12T04:11:00;101969.50;;;24.33;29.77
77737;BME280;66903;59.926;30.404;2023-02-12T04:21:48;101980.94;;;23.96;29.36
77737;BME280;66903;59.926;30.404;2023-02-12T04:27:09;101995.09;;;23.81;29.63
77737;BME280;66903;59.926;30.404;2023-02-12T04:32:14;101991.56;;;23.64;29.27
77737;BME280;66903;59.926;30.404;2023-02-12T04:37:21;101999.38;;;23.47;29.44
77737;BME280;66903;59.926;30.404;2023-02-12T04:42:25;101990.72;;;23.37;29.55
77737;BME280;66903;59.926;30.404;2023-02-12T04:47:25;101998.97;;;23.34;29.51
77737;BME280;66903;59.926;30.404;2023-02-12T04:52:26;101993.22;;;23.29;29.50
77737;BME280;66903;59.926;30.404;2023-02-12T04:57:26;101991.41;;;23.23;29.28
77737;BME280;66903;59.926;30.404;2023-02-12T05:02:27;101986.78;;;23.17;29.02
77737;BME280;66903;59.926;30.404;2023-02-12T05:07:27;101980.72;;;23.08;29.27
77737;BME280;66903;59.926;30.404;2023-02-12T05:12:28;101982.69;;;23.08;29.32
77737;BME280;66903;59.926;30.404;2023-02-12T05:17:28;101992.41;;;23.07;29.46
77737;BME280;66903;59.926;30.404;2023-02-12T05:22:29;102001.19;;;23.05;29.21
77737;BME280;66903;59.926;30.404;2023-02-12T05:27:29;102004.31;;;23.03;29.43
77737;BME280;66903;59.926;30.404;2023-02-12T05:32:30;102006.56;;;23.01;29.21
77737;BME280;66903;59.926;30.404;2023-02-12T05:37:33;102015.09;;;23.01;29.21
77737;BME280;66903;59.926;30.404;2023-02-12T05:42:34;102015.66;;;22.98;28.96
77737;BME280;66903;59.926;30.404;2023-02-12T05:47:35;102019.31;;;22.94;28.89
77737;BME280;66903;59.926;30.404;2023-02-12T05:52:35;102032.38;;;22.90;28.80
77737;BME280;66903;59.926;30.404;2023-02-12T05:57:36;102022.34;;;22.87;28.89
77737;BME280;66903;59.926;30.404;2023-02-12T06:02:36;102022.50;;;22.97;28.60
77737;BME280;66903;59.926;30.404;2023-02-12T06:07:37;102018.94;;;23.12;28.62
77737;BME280;66903;59.926;30.404;2023-02-12T06:12:37;102007.66;;;23.22;28.48
77737;BME280;66903;59.926;30.404;2023-02-12T06:17:38;102023.44;;;23.30;28.54
77737;BME280;66903;59.926;30.404;2023-02-12T06:22:38;102021.50;;;23.35;28.40
77737;BME280;66903;59.926;30.404;2023-02-12T06:27:39;102019.56;;;23.41;28.40
77737;BME280;66903;59.926;30.404;2023-02-12T06:32:39;102015.91;;;23.45;28.11
77737;BME280;66903;59.926;30.404;2023-02-12T06:37:40;102007.41;;;23.50;28.35
77737;BME280;66903;59.926;30.404;2023-02-12T06:42:40;102019.97;;;23.54;28.42
77737;BME280;66903;59.926;30.404;2023-02-12T06:47:41;102016.75;;;23.46;27.95
77737;BME280;66903;59.926;30.404;2023-02-12T06:52:41;102004.06;;;23.32;27.94
77737;BME280;66903;59.926;30.404;2023-02-12T06:57:42;102015.94;;;23.24;28.12
77737;BME280;66903;59.926;30.404;2023-02-12T07:02:42;102014.03;;;23.29;28.31
77737;BME280;66903;59.926;30.404;2023-02-12T07:07:43;102013.38;;;23.49;28.16
77737;BME280;66903;59.926;30.404;2023-02-12T07:12:44;102026.44;;;23.71;27.82
77737;BME280;66903;59.926;30.404;2023-02-12T07:17:44;102028.47;;;23.81;28.10
77737;BME280;66903;59.926;30.404;2023-02-12T07:22:45;102049.41;;;23.91;27.53
77737;BME280;66903;59.926;30.404;2023-02-12T07:27:45;102061.81;;;24.02;27.56
77737;BME280;66903;59.926;30.404;2023-02-12T07:32:46;102057.31;;;24.11;27.94
77737;BME280;66903;59.926;30.404;2023-02-12T07:37:46;102073.19;;;24.39;27.81
77737;BME280;66903;59.926;30.404;2023-02-12T07:42:47;102087.88;;;24.99;27.52
77737;BME280;66903;59.926;30.404;2023-02-12T07:47:54;102096.66;;;25.54;27.55
77737;BME280;66903;59.926;30.404;2023-02-12T07:52:54;102096.75;;;26.14;27.44
77737;BME280;66903;59.926;30.404;2023-02-12T07:57:55;102096.63;;;26.85;27.24
77737;BME280;66903;59.926;30.404;2023-02-12T08:02:56;102097.91;;;27.33;26.70
77737;BME280;66903;59.926;30.404;2023-02-12T08:07:56;102111.53;;;27.61;26.52
77737;BME280;66903;59.926;30.404;2023-02-12T08:12:57;102095.81;;;27.87;26.63
77737;BME280;66903;59.926;30.404;2023-02-12T08:17:58;102086.75;;;28.42;26.14
77737;BME280;66903;59.926;30.404;2023-02-12T08:22:59;102079.41;;;29.07;26.11
77737;BME280;66903;59.926;30.404;2023-02-12T08:28:00;102077.56;;;29.39;26.09
77737;BME280;66903;59.926;30.404;2023-02-12T08:33:00;102071.47;;;30.15;25.44
77737;BME280;66903;59.926;30.404;2023-02-12T08:38:02;102086.22;;;31.05;25.05
77737;BME280;66903;59.926;30.404;2023-02-12T08:43:02;102076.34;;;31.33;24.65
77737;BME280;66903;59.926;30.404;2023-02-12T08:48:03;102085.03;;;31.47;24.31
77737;BME280;66903;59.926;30.404;2023-02-12T08:53:03;102089.72;;;31.29;24.34
77737;BME280;66903;59.926;30.404;2023-02-12T08:58:04;102079.25;;;31.33;24.44
77737;BME280;66903;59.926;30.404;2023-02-12T09:03:04;102096.56;;;31.33;24.44
77737;BME280;66903;59.926;30.404;2023-02-12T09:08:05;102112.94;;;31.24;24.39
77737;BME280;66903;59.926;30.404;2023-02-12T09:13:08;102101.06;;;30.85;24.38
77737;BME280;66903;59.926;30.404;2023-02-12T09:18:27;102078.84;;;30.40;24.51
77737;BME280;66903;59.926;30.404;2023-02-12T09:23:31;102069.88;;;29.72;25.14
77737;BME280;66903;59.926;30.404;2023-02-12T09:28:31;102072.75;;;29.11;25.26
77737;BME280;66903;59.926;30.404;2023-02-12T09:33:32;102066.25;;;28.54;25.57
77737;BME280;66903;59.926;30.404;2023-02-12T09:38:33;102063.69;;;28.18;25.88
77737;BME280;66903;59.926;30.404;2023-02-12T09:43:57;102070.75;;;28.02;25.72
77737;BME280;66903;59.926;30.404;2023-02-12T09:49:07;102048.84;;;27.73;25.90
77737;BME280;66903;59.926;30.404;2023-02-12T09:54:17;102008.47;;;27.59;26.16
77737;BME280;66903;59.926;30.404;2023-02-12T09:59:34;102026.91;;;27.48;25.86
77737;BME280;66903;59.926;30.404;2023-02-12T10:04:35;102026.16;;;27.27;26.12
77737;BME280;66903;59.926;30.404;2023-02-12T10:15:19;102019.13;;;27.05;26.55
77737;BME280;66903;59.926;30.404;2023-02-12T10:25:57;102040.22;;;26.60;26.79
77737;BME280;66903;59.926;30.404;2023-02-12T10:31:01;102025.31;;;26.53;26.48
77737;BME280;66903;59.926;30.404;2023-02-12T10:41:38;102023.03;;;26.55;26.66
77737;BME280;66903;59.926;30.404;2023-02-12T10:46:40;102016.19;;;26.41;26.70
77737;BME280;66903;59.926;30.404;2023-02-12T10:56:44;101985.00;;;26.24;26.90
77737;BME280;66903;59.926;30.404;2023-02-12T11:01:46;101990.19;;;26.23;27.07
77737;BME280;66903;59.926;30.404;2023-02-12T11:07:02;101987.88;;;26.24;26.86
77737;BME280;66903;59.926;30.404;2023-02-12T11:17:37;101975.03;;;26.12;27.08
77737;BME280;66903;59.926;30.404;2023-02-12T11:23:53;101973.31;;;26.06;27.14
77737;BME280;66903;59.926;30.404;2023-02-12T11:28:30;101946.69;;;25.90;27.24
77737;BME280;66903;59.926;30.404;2023-02-12T11:33:36;101943.25;;;25.88;27.23
77737;BME280;66903;59.926;30.404;2023-02-12T11:38:38;101938.38;;;25.79;27.34
77737;BME280;66903;59.926;30.404;2023-02-12T11:43:47;101944.41;;;25.72;26.90
77737;BME280;66903;59.926;30.404;2023-02-12T11:48:48;101935.84;;;25.62;27.13
77737;BME280;66903;59.926;30.404;2023-02-12T11:53:52;101942.13;;;25.49;27.66
77737;BME280;66903;59.926;30.404;2023-02-12T11:59:20;101935.84;;;25.37;27.52
77737;BME280;66903;59.926;30.404;2023-02-12T12:04:27;101926.94;;;25.18;27.58
77737;BME280;66903;59.926;30.404;2023-02-12T12:09:54;101921.22;;;25.13;27.57
77737;BME280;66903;59.926;30.404;2023-02-12T12:15:01;101912.63;;;25.08;27.52
77737;BME280;66903;59.926;30.404;2023-02-12T12:20:24;101888.91;;;24.98;27.87
77737;BME280;66903;59.926;30.404;2023-02-12T12:25:30;101890.88;;;24.92;27.78
77737;BME280;66903;59.926;30.404;2023-02-12T12:30:55;101885.47;;;24.96;27.60
77737;BME280;66903;59.926;30.404;2023-02-12T12:52:15;101837.13;;;24.89;27.32
77737;BME280;66903;59.926;30.404;2023-02-12T13:13:40;101800.50;;;24.66;28.10
77737;BME280;66903;59.926;30.404;2023-02-12T13:18:58;101784.19;;;24.62;27.97
77737;BME280;66903;59.926;30.404;2023-02-12T13:24:28;101777.63;;;24.56;27.90
77737;BME280;66903;59.926;30.404;2023-02-12T13:29:42;101770.19;;;24.45;27.99
77737;BME280;66903;59.926;30.404;2023-02-12T13:34:44;101770.75;;;24.37;28.14
77737;BME280;66903;59.926;30.404;2023-02-12T13:39:47;101767.31;;;24.30;28.06
77737;BME280;66903;59.926;30.404;2023-02-12T13:44:58;101740.72;;;24.25;28.04
77737;BME280;66903;59.926;30.404;2023-02-12T13:50:19;101715.59;;;24.32;27.94
77737;BME280;66903;59.926;30.404;2023-02-12T13:55:28;101718.16;;;24.13;28.57
77737;BME280;66903;59.926;30.404;2023-02-12T14:05:47;101681.59;;;24.05;28.71
77737;BME280;66903;59.926;30.404;2023-02-12T14:11:03;101671.31;;;24.04;28.72
77737;BME280;66903;59.926;30.404;2023-02-12T14:26:35;101681.53;;;23.95;28.70
77737;BME280;66903;59.926;30.404;2023-02-12T14:31:38;101678.69;;;23.90;28.53
77737;BME280;66903;59.926;30.404;2023-02-12T14:36:44;101682.69;;;23.89;28.95
77737;BME280;66903;59.926;30.404;2023-02-12T14:41:51;101679.84;;;23.89;28.70
77737;BME280;66903;59.926;30.404;2023-02-12T14:52:18;101643.28;;;23.76;28.84
77737;BME280;66903;59.926;30.404;2023-02-12T14:57:39;101648.38;;;23.69;28.66
77737;BME280;66903;59.926;30.404;2023-02-12T15:02:48;101638.66;;;23.65;28.88
77737;BME280;66903;59.926;30.404;2023-02-12T15:29:05;101578.16;;;23.43;28.73
77737;BME280;66903;59.926;30.404;2023-02-12T15:34:12;101577.88;;;23.49;28.70
77737;BME280;66903;59.926;30.404;2023-02-12T15:39:51;101570.19;;;23.45;28.43
77737;BME280;66903;59.926;30.404;2023-02-12T15:45:23;101549.06;;;23.41;28.75
77737;BME280;66903;59.926;30.404;2023-02-12T15:50:21;101527.94;;;23.37;29.02
77737;BME280;66903;59.926;30.404;2023-02-12T15:55:35;101527.69;;;23.38;29.22
77737;BME280;66903;59.926;30.404;2023-02-12T16:00:42;101504.88;;;23.38;28.98
77737;BME280;66903;59.926;30.404;2023-02-12T16:05:46;101494.88;;;23.36;29.38
77737;BME280;66903;59.926;30.404;2023-02-12T16:10:53;101485.75;;;23.39;29.38
77737;BME280;66903;59.926;30.404;2023-02-12T16:21:21;101467.53;;;23.40;29.75
77737;BME280;66903;59.926;30.404;2023-02-12T16:26:32;101451.00;;;23.42;30.06
77737;BME280;66903;59.926;30.404;2023-02-12T16:31:51;101446.41;;;23.41;29.95
77737;BME280;66903;59.926;30.404;2023-02-12T16:37:03;101456.13;;;23.40;30.12
77737;BME280;66903;59.926;30.404;2023-02-12T16:42:24;101430.75;;;23.38;30.26
77737;BME280;66903;59.926;30.404;2023-02-12T16:47:28;101433.31;;;23.40;30.66
77737;BME280;66903;59.926;30.404;2023-02-12T16:52:38;101428.47;;;23.45;31.25
77737;BME280;66903;59.926;30.404;2023-02-12T16:57:39;101411.34;;;23.50;31.63
77737;BME280;66903;59.926;30.404;2023-02-12T17:02:40;101406.78;;;23.59;32.08
77737;BME280;66903;59.926;30.404;2023-02-12T17:07:41;101410.19;;;23.71;32.34
77737;BME280;66903;59.926;30.404;2023-02-12T17:12:49;101398.19;;;23.84;32.47
77737;BME280;66903;59.926;30.404;2023-02-12T17:17:50;101381.91;;;23.95;32.50
77737;BME280;66903;59.926;30.404;2023-02-12T17:22:57;101373.91;;;24.02;32.20
77737;BME280;66903;59.926;30.404;2023-02-12T17:28:01;101367.34;;;24.06;32.33
77737;BME280;66903;59.926;30.404;2023-02-12T17:33:02;101345.06;;;24.08;32.71
77737;BME280;66903;59.926;30.404;2023-02-12T17:38:03;101326.47;;;24.16;32.55
77737;BME280;66903;59.926;30.404;2023-02-12T17:43:10;101316.50;;;24.19;32.37
77737;BME280;66903;59.926;30.404;2023-02-12T17:48:38;101314.44;;;24.29;32.41
77737;BME280;66903;59.926;30.404;2023-02-12T17:53:40;101289.06;;;24.28;32.32
77737;BME280;66903;59.926;30.404;2023-02-12T18:04:21;101248.78;;;24.29;32.64
77737;BME280;66903;59.926;30.404;2023-02-12T18:09:31;101257.34;;;24.29;32.15
77737;BME280;66903;59.926;30.404;2023-02-12T18:14:32;101227.09;;;24.23;32.07
77737;BME280;66903;59.926;30.404;2023-02-12T18:19:32;101221.97;;;24.25;32.32
77737;BME280;66903;59.926;30.404;2023-02-12T18:24:39;101224.53;;;24.22;32.09
77737;BME280;66903;59.926;30.404;2023-02-12T18:29:41;101220.56;;;24.18;32.04
77737;BME280;66903;59.926;30.404;2023-02-12T18:34:42;101228.88;;;24.14;32.31
77737;BME280;66903;59.926;30.404;2023-02-12T18:39:43;101212.91;;;24.13;32.31
77737;BME280;66903;59.926;30.404;2023-02-12T18:44:43;101195.22;;;24.11;32.53
77737;BME280;66903;59.926;30.404;2023-02-12T18:49:44;101189.81;;;24.09;32.32
77737;BME280;66903;59.926;30.404;2023-02-12T18:54:45;101186.38;;;24.07;32.50
77737;BME280;66903;59.926;30.404;2023-02-12T18:59:45;101180.69;;;24.07;32.55
77737;BME280;66903;59.926;30.404;2023-02-12T19:04:46;101176.97;;;24.07;32.38
77737;BME280;66903;59.926;30.404;2023-02-12T19:09:47;101167.84;;;24.05;32.54
77737;BME280;66903;59.926;30.404;2023-02-12T19:14:47;101167.84;;;24.05;32.36
77737;BME280;66903;59.926;30.404;2023-02-12T19:20:22;101148.13;;;24.08;32.41
77737;BME280;66903;59.926;30.404;2023-02-12T19:25:22;101143.31;;;24.04;32.32
77737;BME280;66903;59.926;30.404;2023-02-12T19:30:23;101141.31;;;24.04;32.85
77737;BME280;66903;59.926;30.404;2023-02-12T19:35:35;101144.44;;;24.08;32.40
77737;BME280;66903;59.926;30.404;2023-02-12T19:40:39;101127.59;;;24.06;32.13
77737;BME280;66903;59.926;30.404;2023-02-12T19:45:39;101114.78;;;24.04;32.66
77737;BME280;66903;59.926;30.404;2023-02-12T19:51:05;101110.44;;;24.12;32.97
77737;BME280;66903;59.926;30.404;2023-02-12T19:56:15;101088.44;;;24.12;33.45
77737;BME280;66903;59.926;30.404;2023-02-12T20:01:18;101071.56;;;24.16;33.76
77737;BME280;66903;59.926;30.404;2023-02-12T20:06:35;101068.94;;;24.24;33.81
77737;BME280;66903;59.926;30.404;2023-02-12T20:12:13;101058.81;;;24.42;34.54
77737;BME280;66903;59.926;30.404;2023-02-12T20:17:25;101055.09;;;24.65;34.54
77737;BME280;66903;59.926;30.404;2023-02-12T20:22:25;101053.75;;;24.86;34.72
77737;BME280;66903;59.926;30.404;2023-02-12T20:27:26;101028.75;;;25.01;35.22
77737;BME280;66903;59.926;30.404;2023-02-12T20:32:26;101022.56;;;25.13;35.44
77737;BME280;66903;59.926;30.404;2023-02-12T20:37:27;101035.03;;;25.22;35.64
77737;BME280;66903;59.926;30.404;2023-02-12T20:42:27;101063.25;;;25.29;35.43
77737;BME280;66903;59.926;30.404;2023-02-12T20:47:28;101069.75;;;25.34;35.74
77737;BME280;66903;59.926;30.404;2023-02-12T20:52:28;101067.72;;;25.40;35.78
77737;BME280;66903;59.926;30.404;2023-02-12T20:57:29;101061.94;;;25.45;36.05
77737;BME280;66903;59.926;30.404;2023-02-12T21:02:32;101047.00;;;25.48;36.10
77737;BME280;66903;59.926;30.404;2023-02-12T21:07:45;101044.59;;;25.55;35.97
77737;BME280;66903;59.926;30.404;2023-02-12T21:12:47;101047.00;;;25.48;35.63
77737;BME280;66903;59.926;30.404;2023-02-12T21:17:47;101048.97;;;25.52;35.77
77737;BME280;66903;59.926;30.404;2023-02-12T21:34:08;101047.25;;;25.51;35.79
77737;BME280;66903;59.926;30.404;2023-02-12T21:39:16;101048.97;;;25.52;36.40
77737;BME280;66903;59.926;30.404;2023-02-12T21:50:20;101068.75;;;25.49;36.38
77737;BME280;66903;59.926;30.404;2023-02-12T21:55:20;101066.19;;;25.47;36.53
77737;BME280;66903;59.926;30.404;2023-02-12T22:00:55;101078.38;;;25.53;36.39
77737;BME280;66903;59.926;30.404;2023-02-12T22:06:04;101072.97;;;25.51;36.55
77737;BME280;66903;59.926;30.404;2023-02-12T22:11:09;101057.00;;;25.50;36.77
77737;BME280;66903;59.926;30.404;2023-02-12T22:16:14;101054.44;;;25.49;36.98
77737;BME280;66903;59.926;30.404;2023-02-12T22:21:16;101075.53;;;25.53;36.89
77737;BME280;66903;59.926;30.404;2023-02-12T22:32:38;101058.31;;;25.58;36.63
77737;BME280;66903;59.926;30.404;2023-02-12T22:37:45;101037.59;;;25.47;37.20
77737;BME280;66903;59.926;30.404;2023-02-12T22:42:45;101065.50;;;25.55;36.74
77737;BME280;66903;59.926;30.404;2023-02-12T22:48:05;101076.88;;;25.60;36.44
77737;BME280;66903;59.926;30.404;2023-02-12T22:53:11;101060.41;;;25.52;36.64
77737;BME280;66903;59.926;30.404;2023-02-12T22:58:39;101057.16;;;25.59;36.54
77737;BME280;66903;59.926;30.404;2023-02-12T23:03:55;101059.53;;;25.52;36.78
77737;BME280;66903;59.926;30.404;2023-02-12T23:08:59;101046.41;;;25.51;36.45
77737;BME280;66903;59.926;30.404;2023-02-12T23:13:59;101068.13;;;25.52;36.96
77737;BME280;66903;59.926;30.404;2023-02-12T23:19:00;101067.81;;;25.53;36.63
77737;BME280;66903;59.926;30.404;2023-02-12T23:24:01;101059.00;;;25.50;36.59
77737;BME280;66903;59.926;30.404;2023-02-12T23:29:01;101075.53;;;25.53;36.49
77737;BME280;66903;59.926;30.404;2023-02-12T23:39:59;101070.66;;;25.53;36.60
77737;BME280;66903;59.926;30.404;2023-02-12T23:45:00;101080.97;;;25.54;36.80
77737;BME280;66903;59.926;30.404;2023-02-12T23:50:31;101085.75;;;25.59;36.64
77737;BME280;66903;59.926;30.404;2023-02-12T23:56:08;101069.22;;;25.56;36.64
